Time;durP1;ratioP1;P1;durP2;ratioP2;P2;SDS_P1;SDS_P2;PMS_P1;PMS_P2;Temp;Humidity;BMP_temperature;BMP_pressure;BME280_temperature;BME280_humidity;BME280_pressure;Samples;Min_cycle;Max_cycle;Signal;HPM_P1;HPM_P2
2022/01/05 00:02:40;;;;;;;9.63;1.80;;;;;;;3.65;94.24;99537.84;10359853;28;20149;-66
2022/01/05 00:08:02;;;;;;;11.70;1.92;;;;;;;3.69;94.69;99532.44;10360060;28;20050;-65
2022/01/05 00:13:24;;;;;;;6.40;1.45;;;;;;;3.59;94.47;99536.47;10402646;28;20470;-65
2022/01/05 00:18:46;;;;;;;7.60;1.77;;;;;;;3.57;93.91;99540.03;10414358;28;20064;-64
2022/01/05 00:24:08;;;;;;;13.43;1.70;;;;;;;3.51;94.45;99536.06;10402110;28;20413;-64
2022/01/05 00:29:30;;;;;;;12.85;1.63;;;;;;;3.50;93.58;99539.53;10362515;28;20054;-64
2022/01/05 00:34:52;;;;;;;9.82;1.50;;;;;;;3.49;94.58;99531.91;10358856;28;20655;-65
2022/01/05 00:40:14;;;;;;;10.05;1.83;;;;;;;3.38;94.48;99519.63;10359584;28;20061;-64
2022/01/05 00:45:35;;;;;;;15.32;1.83;;;;;;;3.42;93.98;99521.13;10362058;28;20057;-64
2022/01/05 00:51:00;;;;;;;14.15;1.52;;;;;;;3.41;93.97;99509.16;10357990;28;20116;-65
2022/01/05 00:56:22;;;;;;;9.05;1.40;;;;;;;3.43;92.46;99509.91;10357583;28;20046;-65
2022/01/05 01:01:43;;;;;;;6.55;1.50;;;;;;;3.40;93.48;99517.00;10414908;28;20060;-65
2022/01/05 01:07:06;;;;;;;18.90;1.73;;;;;;;3.41;91.74;99510.94;10344373;28;20398;-65
2022/01/05 01:12:28;;;;;;;12.95;1.38;;;;;;;3.31;93.13;99508.03;10358817;28;20144;-64
2022/01/05 01:17:50;;;;;;;12.02;1.52;;;;;;;3.26;91.98;99515.19;10423703;28;20053;-64
2022/01/05 01:23:12;;;;;;;9.05;1.52;;;;;;;3.37;92.18;99505.09;10401075;28;20050;-65
2022/01/05 01:28:33;;;;;;;9.77;1.45;;;;;;;3.33;92.02;99507.94;10367254;28;20053;-65
2022/01/05 01:33:55;;;;;;;14.77;1.65;;;;;;;3.17;92.99;99508.00;10370043;28;20064;-65
2022/01/05 01:39:17;;;;;;;6.00;1.20;;;;;;;3.10;95.37;99509.22;10356273;28;20062;-65
2022/01/05 01:44:38;;;;;;;11.70;1.33;;;;;;;2.97;94.37;99510.81;10380112;28;20052;-65
2022/01/05 01:50:00;;;;;;;13.90;1.48;;;;;;;3.01;94.27;99499.44;10411419;28;20052;-65
2022/01/05 01:55:22;;;;;;;10.18;1.40;;;;;;;2.90;94.97;99506.09;10438004;28;20047;-65
2022/01/05 02:00:44;;;;;;;8.13;1.77;;;;;;;2.87;95.56;99503.69;10428480;28;20068;-65
2022/01/05 02:06:05;;;;;;;12.30;1.50;;;;;;;2.96;95.80;99500.63;10406458;28;20051;-65
2022/01/05 02:11:27;;;;;;;6.38;1.40;;;;;;;2.71;96.94;99489.19;10406545;28;20050;-65
2022/01/05 02:16:49;;;;;;;9.40;1.48;;;;;;;2.89;96.01;99489.84;10403207;28;20053;-65
2022/01/05 02:22:11;;;;;;;6.38;1.42;;;;;;;2.86;95.55;99497.72;10416609;28;20053;-65
2022/01/05 02:27:32;;;;;;;13.05;1.73;;;;;;;2.88;95.16;99483.03;10445345;28;20059;-65
2022/01/05 02:32:54;;;;;;;8.90;1.63;;;;;;;2.81;95.89;99480.03;10368319;28;20058;-64
2022/01/05 02:38:18;;;;;;;11.10;1.50;;;;;;;2.94;94.07;99474.97;10365901;28;20057;-63
2022/01/05 02:43:42;;;;;;;6.00;1.30;;;;;;;2.99;93.60;99482.41;10363073;28;20050;-64
2022/01/05 02:49:04;;;;;;;11.05;1.88;;;;;;;3.14;93.16;99476.41;10432151;28;20048;-64
2022/01/05 02:54:26;;;;;;;10.88;1.75;;;;;;;3.20;91.96;99471.75;10429763;28;20052;-64
2022/01/05 02:59:48;;;;;;;7.60;1.45;;;;;;;3.24;91.81;99472.44;10444512;28;20048;-65
2022/01/05 03:05:10;;;;;;;11.10;1.58;;;;;;;3.27;90.82;99467.94;10394586;28;20409;-64
2022/01/05 03:10:31;;;;;;;9.23;1.50;;;;;;;3.33;90.58;99470.16;10432441;28;20049;-64
2022/01/05 03:15:54;;;;;;;11.38;1.40;;;;;;;3.29;89.46;99466.09;10363533;28;20050;-65
2022/01/05 03:21:16;;;;;;;13.60;1.73;;;;;;;3.31;89.33;99466.84;10398416;28;20727;-64
2022/01/05 03:26:38;;;;;;;8.18;1.58;;;;;;;3.34;89.27;99468.41;10444183;28;20045;-65
2022/01/05 03:32:00;;;;;;;14.60;1.77;;;;;;;3.32;88.81;99467.66;10439101;28;20507;-64
2022/01/05 03:37:21;;;;;;;9.13;1.52;;;;;;;3.29;88.82;99455.81;10411944;28;20584;-65
2022/01/05 03:42:43;;;;;;;14.15;1.50;;;;;;;3.21;89.57;99457.16;10444162;28;20072;-64
2022/01/05 03:48:08;;;;;;;15.00;1.77;;;;;;;3.26;89.56;99443.09;10362207;28;20430;-65
2022/01/05 03:53:30;;;;;;;11.45;1.88;;;;;;;3.34;89.41;99455.53;10401956;28;20047;-64
2022/01/05 03:58:51;;;;;;;7.88;1.60;;;;;;;3.35;88.03;99455.44;10425406;28;20390;-65
2022/01/05 04:04:13;;;;;;;12.88;1.77;;;;;;;3.32;88.28;99458.22;10383512;28;20160;-65
2022/01/05 04:09:35;;;;;;;13.45;1.90;;;;;;;3.28;87.79;99469.59;10360894;28;20058;-64
2022/01/05 04:14:57;;;;;;;11.93;1.50;;;;;;;3.28;88.97;99455.88;10361169;28;20053;-64
2022/01/05 04:20:19;;;;;;;10.30;1.60;;;;;;;3.29;89.21;99453.22;10369185;28;20058;-64
2022/01/05 04:25:41;;;;;;;11.55;1.55;;;;;;;3.26;89.87;99447.44;10359067;28;20065;-65
2022/01/05 04:31:03;;;;;;;10.80;1.40;;;;;;;3.23;89.40;99450.16;10422635;28;20504;-64
2022/01/05 04:36:25;;;;;;;14.95;1.63;;;;;;;3.29;89.47;99455.81;10401122;28;20061;-65
2022/01/05 04:41:47;;;;;;;13.88;1.73;;;;;;;3.27;88.13;99460.19;10344511;28;20053;-64
2022/01/05 04:47:09;;;;;;;11.80;1.58;;;;;;;3.31;88.25;99466.00;10360310;28;20045;-64
2022/01/05 04:52:31;;;;;;;14.98;2.10;;;;;;;3.32;88.79;99455.63;10357901;28;20073;-64
2022/01/05 04:57:53;;;;;;;14.35;1.90;;;;;;;3.36;88.34;99444.22;10432314;28;20041;-65
2022/01/05 05:03:14;;;;;;;10.25;1.75;;;;;;;3.35;88.95;99460.59;10435444;28;20078;-64
2022/01/05 05:08:36;;;;;;;14.05;2.20;;;;;;;3.31;88.33;99453.97;10419197;28;20141;-65
2022/01/05 05:13:58;;;;;;;12.05;2.22;;;;;;;3.34;88.53;99456.38;10401220;28;20410;-65
2022/01/05 05:19:19;;;;;;;11.30;2.08;;;;;;;3.31;89.97;99451.41;10410523;28;20510;-64
2022/01/05 05:24:41;;;;;;;12.05;1.98;;;;;;;3.30;89.23;99449.72;10399395;28;20049;-64
2022/01/05 05:30:03;;;;;;;8.77;1.88;;;;;;;3.30;89.76;99449.72;10366268;28;20379;-64
2022/01/05 05:35:28;;;;;;;14.77;1.98;;;;;;;3.26;89.20;99447.44;10401678;28;20049;-65
2022/01/05 05:40:50;;;;;;;11.13;1.80;;;;;;;3.23;89.63;99447.59;10356457;28;20495;-65
2022/01/05 05:46:12;;;;;;;17.83;1.95;;;;;;;3.20;89.49;99433.13;10357378;28;20050;-64
2022/01/05 05:51:37;;;;;;;15.40;2.13;;;;;;;3.12;89.90;99419.88;10343384;28;20053;-65
2022/01/05 05:56:59;;;;;;;13.80;2.03;;;;;;;3.13;91.35;99416.41;10415970;28;20413;-65
2022/01/05 06:02:20;;;;;;;12.65;2.10;;;;;;;3.15;89.94;99430.00;10409933;28;20501;-65
2022/01/05 06:07:42;;;;;;;10.88;1.63;;;;;;;3.26;90.58;99437.94;10400029;28;20049;-64
2022/01/05 06:13:04;;;;;;;12.57;2.10;;;;;;;3.27;91.40;99431.06;10393015;28;20053;-63
2022/01/05 06:18:28;;;;;;;14.68;1.98;;;;;;;3.26;90.43;99440.53;10410358;28;20524;-64
2022/01/05 06:23:49;;;;;;;15.48;2.10;;;;;;;3.26;91.00;99437.94;10373872;28;20054;-64
2022/01/05 06:29:13;;;;;;;11.05;2.15;;;;;;;3.22;91.30;99436.47;10358366;28;20053;-65
2022/01/05 06:34:35;;;;;;;13.80;1.92;;;;;;;3.30;89.84;99429.13;10397532;28;20049;-64
2022/01/05 06:39:58;;;;;;;14.40;1.92;;;;;;;3.38;90.34;99421.78;10361715;28;20506;-64
2022/01/05 06:45:20;;;;;;;19.33;2.42;;;;;;;3.43;90.31;99430.09;10355878;28;20050;-64
2022/01/05 06:50:42;;;;;;;11.23;1.90;;;;;;;3.51;90.68;99427.88;10357968;28;20073;-65
2022/01/05 06:56:04;;;;;;;12.52;1.95;;;;;;;3.59;90.32;99427.44;10374936;28;20052;-64
2022/01/05 07:01:26;;;;;;;14.00;2.08;;;;;;;3.64;89.94;99428.81;10438711;28;20059;-65
2022/01/05 07:06:48;;;;;;;15.80;2.13;;;;;;;3.73;91.36;99443.75;10390111;28;20050;-64
2022/01/05 07:12:10;;;;;;;16.63;2.33;;;;;;;3.69;92.68;99457.72;10374057;28;20046;-63
2022/01/05 07:17:32;;;;;;;14.45;2.30;;;;;;;3.69;93.77;99447.41;10363677;28;20065;-65
2022/01/05 07:22:54;;;;;;;16.52;2.35;;;;;;;3.65;94.76;99458.81;10363893;28;20050;-65
2022/01/05 07:28:16;;;;;;;13.15;2.30;;;;;;;3.55;96.58;99455.13;10378581;28;20045;-65
2022/01/05 07:33:38;;;;;;;19.98;2.53;;;;;;;3.53;98.01;99464.69;10368825;28;20111;-65
2022/01/05 07:39:02;;;;;;;17.50;2.53;;;;;;;3.44;100.00;99462.66;10361553;28;20057;-64
2022/01/05 07:44:23;;;;;;;9.98;2.08;;;;;;;3.25;100.00;99467.19;10361159;28;20050;-64
2022/01/05 07:49:45;;;;;;;11.70;2.33;;;;;;;3.28;100.00;99461.88;10362735;28;20069;-64
2022/01/05 07:55:08;;;;;;;18.58;2.30;;;;;;;3.23;100.00;99453.56;10376654;28;20052;-63
2022/01/05 08:00:30;;;;;;;11.75;2.60;;;;;;;3.31;100.00;99471.16;10398428;28;20496;-64
2022/01/05 08:05:51;;;;;;;14.63;3.03;;;;;;;3.39;100.00;99463.84;10407593;28;20053;-63
2022/01/05 08:11:14;;;;;;;12.88;2.33;;;;;;;3.46;100.00;99460.81;10376799;28;20394;-64
2022/01/05 08:16:36;;;;;;;15.32;2.25;;;;;;;3.46;100.00;99470.28;10372088;28;20447;-64
2022/01/05 08:21:58;;;;;;;8.88;2.10;;;;;;;3.42;100.00;99459.31;10359870;28;20136;-64
2022/01/05 08:27:19;;;;;;;8.43;2.20;;;;;;;3.45;100.00;99451.44;10360176;28;20054;-64
2022/01/05 08:32:41;;;;;;;15.73;2.60;;;;;;;3.43;100.00;99450.69;10424175;28;20058;-64
2022/01/05 08:38:04;;;;;;;9.82;2.25;;;;;;;3.54;100.00;99458.63;10344506;28;20045;-64
2022/01/05 08:43:26;;;;;;;10.30;1.92;;;;;;;3.59;100.00;99461.75;10359190;28;20062;-64
2022/01/05 08:48:47;;;;;;;9.90;2.40;;;;;;;3.68;100.00;99461.22;10347717;28;20066;-64
2022/01/05 08:54:09;;;;;;;7.15;2.03;;;;;;;3.69;100.00;99462.06;10384963;28;20045;-64
2022/01/05 08:59:31;;;;;;;9.38;2.42;;;;;;;3.65;100.00;99466.53;10412770;28;20053;-64
2022/01/05 09:04:52;;;;;;;7.65;2.33;;;;;;;3.69;100.00;99472.38;10358095;28;20423;-64
2022/01/05 09:10:14;;;;;;;11.73;2.13;;;;;;;3.69;100.00;99460.28;10346908;28;20142;-64
2022/01/05 09:15:37;;;;;;;7.75;1.70;;;;;;;3.74;100.00;99455.72;10411247;28;20060;-65
2022/01/05 09:20:58;;;;;;;8.10;1.80;;;;;;;3.72;100.00;99457.53;10367608;28;20061;-64
2022/01/05 09:26:20;;;;;;;7.35;1.90;;;;;;;3.78;100.00;99461.50;10358167;28;20050;-64
2022/01/05 09:31:42;;;;;;;7.60;1.50;;;;;;;3.80;100.00;99452.75;10447287;28;20085;-64
2022/01/05 09:42:44;;;;;;;4.03;1.30;;;;;;;3.81;100.00;99493.06;10355266;28;20048;-64
2022/01/05 09:48:28;;;;;;;2.92;1.10;;;;;;;3.64;100.00;99516.41;10356210;28;20483;-64
2022/01/05 09:53:51;;;;;;;2.38;1.00;;;;;;;3.41;100.00;99486.00;10349124;28;20049;-64
2022/01/05 09:59:35;;;;;;;3.70;1.13;;;;;;;3.46;100.00;99496.03;10437617;28;20432;-64
2022/01/05 10:04:58;;;;;;;3.22;0.90;;;;;;;3.44;100.00;99503.00;10356667;28;20589;-64
2022/01/05 10:10:19;;;;;;;5.13;1.02;;;;;;;3.38;100.00;99499.03;10346602;28;20389;-64
2022/01/05 10:15:43;;;;;;;2.80;1.00;;;;;;;3.51;100.00;99510.28;10410752;28;20052;-64
2022/01/05 10:21:06;;;;;;;6.18;1.45;;;;;;;3.55;100.00;99516.94;10356813;28;20085;-64
2022/01/05 10:26:30;;;;;;;6.18;1.38;;;;;;;3.70;100.00;99518.63;10369363;28;20467;-64
2022/01/05 10:31:54;;;;;;;3.28;1.40;;;;;;;3.90;100.00;99519.13;10431202;28;20517;-65
2022/01/05 10:37:15;;;;;;;4.95;1.60;;;;;;;4.03;100.00;99524.41;10398083;28;20053;-64
2022/01/05 10:42:38;;;;;;;5.75;1.30;;;;;;;4.09;100.00;99524.03;10395767;28;20049;-64
2022/01/05 10:48:13;;;;;;;3.25;1.63;;;;;;;4.14;100.00;99532.34;10363781;28;20517;-64
2022/01/05 10:53:34;;;;;;;3.67;1.35;;;;;;;4.24;100.00;99538.59;10367052;28;20053;-63
2022/01/05 10:58:56;;;;;;;8.32;1.60;;;;;;;4.25;100.00;99560.88;10424651;28;20045;-64
2022/01/05 11:04:20;;;;;;;11.40;2.60;;;;;;;4.28;100.00;99560.72;10441832;28;20044;-63
2022/01/05 11:10:02;;;;;;;8.40;1.63;;;;;;;4.36;100.00;99563.69;10387644;28;20061;-64
2022/01/05 11:15:30;;;;;;;12.80;1.85;;;;;;;4.34;100.00;99570.69;10361311;28;20046;-64
2022/01/05 11:21:04;;;;;;;7.90;1.90;;;;;;;4.42;100.00;99578.78;10361335;28;20223;-64
2022/01/05 11:26:25;;;;;;;12.20;1.90;;;;;;;4.63;100.00;99587.81;10361509;28;20398;-63
2022/01/05 11:31:47;;;;;;;5.75;1.40;;;;;;;4.79;100.00;99582.47;10431198;28;20482;-64
2022/01/05 11:37:10;;;;;;;14.82;1.52;;;;;;;4.75;100.00;99581.00;10400883;28;20073;-63
2022/01/05 11:42:37;;;;;;;12.48;1.48;;;;;;;4.80;100.00;99585.88;10383698;28;20057;-64
2022/01/05 11:48:21;;;;;;;16.20;1.63;;;;;;;5.18;100.00;99597.22;10359454;28;20076;-64
2022/01/05 11:53:45;;;;;;;14.25;1.63;;;;;;;5.07;100.00;99626.34;10365643;28;20145;-63
2022/01/05 11:59:23;;;;;;;21.17;2.70;;;;;;;5.26;100.00;99608.75;10394037;28;20053;-63
2022/01/05 12:04:51;;;;;;;9.27;2.00;;;;;;;5.21;100.00;99630.63;10360684;28;20060;-64
2022/01/05 12:10:18;;;;;;;16.38;1.88;;;;;;;5.20;100.00;99616.91;10363425;28;20057;-63
2022/01/05 12:15:59;;;;;;;20.75;2.78;;;;;;;5.29;100.00;99616.31;10413782;28;20045;-65
2022/01/05 12:22:03;;;;;;;13.80;2.00;;;;;;;5.63;100.00;99631.38;10412113;28;20077;-64
2022/01/05 12:27:32;;;;;;;16.00;2.20;;;;;;;5.69;100.00;99636.13;10209722;29;20139;-64
2022/01/05 12:33:02;;;;;;;23.35;2.72;;;;;;;5.92;100.00;99643.28;10348129;28;20072;-64
2022/01/05 12:38:46;;;;;;;34.97;2.90;;;;;;;6.06;100.00;99635.47;10358576;28;20068;-64
2022/01/05 12:44:11;;;;;;;25.88;3.28;;;;;;;6.23;100.00;99648.13;10359128;28;20494;-64
2022/01/05 12:49:33;;;;;;;21.35;3.13;;;;;;;6.50;98.50;99657.47;10367677;28;20062;-64
2022/01/05 12:55:03;;;;;;;26.63;2.75;;;;;;;6.69;97.10;99663.06;10359484;28;20050;-65
2022/01/05 13:00:25;;;;;;;24.92;2.67;;;;;;;6.83;96.38;99669.00;10437112;28;20138;-64
2022/01/05 13:05:46;;;;;;;30.60;4.10;;;;;;;7.03;95.62;99684.00;10372626;28;20148;-64
2022/01/05 13:11:08;;;;;;;25.55;3.13;;;;;;;7.15;93.18;99698.69;10363883;28;20177;-64
2022/01/05 13:16:30;;;;;;;21.58;3.03;;;;;;;7.15;94.27;99718.59;10358147;28;20046;-64
2022/01/05 13:21:54;;;;;;;16.73;2.53;;;;;;;7.08;94.79;99722.53;10357998;28;20104;-64
2022/01/05 13:27:22;;;;;;;23.67;3.13;;;;;;;7.07;93.90;99737.25;10357733;28;20046;-65
2022/01/05 13:32:47;;;;;;;22.70;2.58;;;;;;;7.04;93.08;99741.84;10379999;28;20511;-64
2022/01/05 13:38:14;;;;;;;32.20;3.80;;;;;;;7.04;92.03;99755.59;10359995;28;20061;-64
2022/01/05 13:43:36;;;;;;;25.25;3.10;;;;;;;7.00;92.78;99782.63;10406899;28;20056;-63
2022/01/05 13:49:14;;;;;;;19.27;2.42;;;;;;;7.09;91.78;99776.84;10419856;28;20137;-64
2022/01/05 13:54:39;;;;;;;20.20;3.10;;;;;;;7.00;92.60;99790.41;10407676;28;20057;-64
2022/01/05 14:00:09;;;;;;;21.83;2.85;;;;;;;7.08;91.36;99803.69;10433849;28;20054;-64
2022/01/05 14:05:33;;;;;;;22.88;2.47;;;;;;;7.19;90.79;99811.59;10416107;28;20510;-64
2022/01/05 14:11:06;;;;;;;25.67;4.18;;;;;;;7.08;91.80;99816.66;10384705;28;20045;-64
2022/01/05 14:16:41;;;;;;;22.13;3.08;;;;;;;7.03;90.52;99826.47;10377511;28;20538;-64
2022/01/05 14:22:07;;;;;;;38.80;4.47;;;;;;;6.95;91.42;99830.50;10342262;28;20062;-65
2022/01/05 14:27:35;;;;;;;14.68;2.20;;;;;;;6.90;91.57;99848.94;10359054;28;20072;-65
2022/01/05 14:33:02;;;;;;;13.60;2.60;;;;;;;6.54;98.01;99878.16;10411326;28;20053;-65
2022/01/05 14:38:24;;;;;;;15.73;2.30;;;;;;;6.34;100.00;99884.53;10355080;28;20057;-65
2022/01/05 14:44:33;;;;;;;13.85;1.95;;;;;;;6.27;99.05;99892.78;10395241;28;20053;-64
2022/01/05 14:50:17;;;;;;;14.38;2.10;;;;;;;6.07;100.00;99912.13;10288892;28;20054;-64
2022/01/05 14:55:38;;;;;;;8.30;1.70;;;;;;;6.08;99.14;99918.16;10392218;28;20053;-64
2022/01/05 15:01:00;;;;;;;16.38;2.00;;;;;;;6.08;98.95;99929.31;10408669;28;20052;-64
2022/01/05 15:06:22;;;;;;;12.55;2.00;;;;;;;6.11;99.27;99949.81;10428016;28;20069;-65
2022/01/05 15:11:44;;;;;;;13.23;2.20;;;;;;;6.10;100.00;99978.38;10410965;28;20059;-65
2022/01/05 15:17:06;;;;;;;17.70;2.17;;;;;;;6.10;100.00;99983.56;10377091;28;20138;-65
2022/01/05 15:22:28;;;;;;;11.88;2.28;;;;;;;5.90;100.00;99996.84;10343703;28;20052;-64
2022/01/05 15:27:49;;;;;;;17.63;1.88;;;;;;;5.85;100.00;99976.41;10371383;28;20044;-64
2022/01/05 15:33:11;;;;;;;21.45;2.25;;;;;;;6.07;100.00;100000.06;10417920;28;20053;-64
2022/01/05 15:38:33;;;;;;;24.92;2.50;;;;;;;6.02;100.00;100016.81;10360829;28;20054;-64
2022/01/05 15:43:54;;;;;;;21.05;2.60;;;;;;;6.07;100.00;100030.31;10360919;28;20054;-64
2022/01/05 15:49:16;;;;;;;13.60;2.40;;;;;;;6.01;100.00;100033.22;10363488;28;20049;-64
2022/01/05 15:54:43;;;;;;;19.70;2.45;;;;;;;5.91;100.00;100050.22;10383702;28;20057;-64
2022/01/05 16:05:49;;;;;;;19.15;2.33;;;;;;;5.90;100.00;100069.25;10396900;28;20072;-64
2022/01/05 16:11:13;;;;;;;12.57;2.75;;;;;;;5.95;100.00;100093.09;10367900;28;20049;-64
2022/01/05 16:16:35;;;;;;;16.85;2.50;;;;;;;5.95;100.00;100103.44;10377889;28;20040;-64
2022/01/05 16:21:57;;;;;;;12.90;2.60;;;;;;;5.84;99.59;100114.41;10426158;28;20598;-64
2022/01/05 16:27:18;;;;;;;14.90;2.85;;;;;;;5.85;99.36;100122.97;10416221;28;20532;-64
2022/01/05 16:32:40;;;;;;;23.85;2.90;;;;;;;5.85;98.65;100128.13;10431321;28;20592;-64
2022/01/05 16:38:25;;;;;;;19.17;2.78;;;;;;;5.80;99.09;100150.88;10395728;28;20048;-64
2022/01/05 16:43:47;;;;;;;23.30;2.67;;;;;;;5.95;97.71;100156.00;10380436;28;20128;-64
2022/01/05 16:49:12;;;;;;;19.67;2.45;;;;;;;5.94;99.17;100162.09;10375681;28;20036;-64
2022/01/05 16:54:39;;;;;;;20.73;2.85;;;;;;;5.97;98.98;100168.81;10379287;28;20048;-64
2022/01/05 17:05:46;;;;;;;26.15;3.80;;;;;;;5.90;100.00;100195.97;10433973;28;20051;-65
2022/01/05 17:11:09;;;;;;;31.17;3.60;;;;;;;5.93;100.00;100203.56;10363448;28;20053;-64
2022/01/05 17:16:31;;;;;;;27.73;3.47;;;;;;;5.94;99.77;100218.97;10405531;28;20079;-64
2022/01/05 17:21:52;;;;;;;18.30;2.60;;;;;;;5.88;99.96;100231.41;10393011;28;20484;-64
2022/01/05 17:27:14;;;;;;;25.85;3.45;;;;;;;5.85;99.65;100236.75;10360403;28;20056;-65
2022/01/05 17:32:36;;;;;;;22.52;3.42;;;;;;;5.88;99.41;100244.34;10352738;28;20470;-65
2022/01/05 17:38:17;;;;;;;18.60;2.72;;;;;;;5.87;100.00;100261.63;10342633;28;20053;-65
2022/01/05 17:43:42;;;;;;;29.52;3.28;;;;;;;5.84;99.39;100268.69;10376813;28;20442;-64
2022/01/05 17:49:04;;;;;;;12.85;2.20;;;;;;;5.90;97.29;100283.91;10359496;28;20073;-64
2022/01/05 17:54:26;;;;;;;20.23;2.50;;;;;;;5.84;97.54;100281.63;10394201;28;20525;-64
2022/01/05 17:59:49;;;;;;;18.98;3.25;;;;;;;5.79;97.31;100301.75;10394469;28;20136;-65
2022/01/05 18:05:11;;;;;;;17.75;3.30;;;;;;;5.76;97.54;100307.06;10419898;28;20060;-65
2022/01/05 18:10:33;;;;;;;19.13;3.33;;;;;;;5.68;98.47;100322.13;10393947;28;20080;-64
2022/01/05 18:16:03;;;;;;;13.40;2.47;;;;;;;5.62;100.00;100332.81;10337109;28;20641;-64
2022/01/05 18:21:25;;;;;;;27.35;3.33;;;;;;;5.62;99.58;100332.81;10351326;28;20054;-64
2022/01/05 18:26:48;;;;;;;27.70;3.08;;;;;;;5.68;100.00;100351.41;10384891;28;20053;-63
2022/01/05 18:32:10;;;;;;;26.10;3.17;;;;;;;5.56;100.00;100373.66;10430326;28;20136;-63
2022/01/05 18:37:34;;;;;;;22.65;3.75;;;;;;;5.55;100.00;100392.66;10400974;28;20042;-63
2022/01/05 18:42:56;;;;;;;26.85;3.90;;;;;;;5.55;100.00;100380.53;10336516;28;20049;-63
2022/01/05 18:48:17;;;;;;;20.55;3.20;;;;;;;5.53;100.00;100378.97;10384964;28;20053;-65
2022/01/05 18:53:39;;;;;;;30.35;3.78;;;;;;;5.43;100.00;100394.09;10391273;28;20072;-68
2022/01/05 18:59:01;;;;;;;27.58;3.60;;;;;;;5.52;100.00;100404.00;10435520;28;20521;-65
2022/01/05 19:04:22;;;;;;;33.47;4.05;;;;;;;5.45;100.00;100397.44;10373165;28;20050;-66
2022/01/05 19:09:44;;;;;;;33.80;4.13;;;;;;;5.50;99.61;100410.97;10356716;28;20058;-67
2022/01/05 19:15:06;;;;;;;27.63;4.15;;;;;;;5.52;99.63;100429.84;10373087;28;20060;-67
2022/01/05 19:20:30;;;;;;;28.42;3.83;;;;;;;5.59;96.07;100440.69;10412352;28;20045;-69
2022/01/05 19:25:52;;;;;;;23.00;2.90;;;;;;;5.61;93.75;100438.84;10383651;28;20038;-67
2022/01/05 19:31:13;;;;;;;24.77;3.42;;;;;;;5.56;93.97;100446.84;10407258;28;20055;-65
2022/01/05 19:36:35;;;;;;;20.42;3.05;;;;;;;5.54;93.54;100456.41;10411563;28;20038;-66
2022/01/05 19:41:57;;;;;;;19.25;3.72;;;;;;;5.47;92.95;100473.16;10370231;28;20064;-65
2022/01/05 19:47:19;;;;;;;24.00;3.08;;;;;;;5.46;91.58;100476.66;10361564;28;20072;-66
2022/01/05 19:52:46;;;;;;;16.10;3.17;;;;;;;5.48;91.93;100482.59;10359477;28;20407;-66
2022/01/05 19:58:09;;;;;;;14.73;3.05;;;;;;;5.41;90.77;100483.78;10421751;28;20049;-65
2022/01/05 20:03:30;;;;;;;19.00;2.90;;;;;;;5.34;91.56;100497.94;10412146;28;20045;-66
2022/01/05 20:08:53;;;;;;;22.50;2.90;;;;;;;5.22;92.50;100493.38;10383916;28;20046;-65
2022/01/05 20:14:18;;;;;;;27.65;3.53;;;;;;;5.22;92.33;100516.63;10402907;28;20414;-65
2022/01/05 20:19:47;;;;;;;19.92;2.72;;;;;;;5.21;93.31;100522.69;10372331;28;20441;-65
2022/01/05 20:25:09;;;;;;;22.75;3.17;;;;;;;5.18;94.47;100528.00;10359371;28;20058;-67
2022/01/05 20:30:31;;;;;;;16.15;3.00;;;;;;;5.16;94.97;100518.66;10412994;28;20059;-65
2022/01/05 20:35:53;;;;;;;20.10;2.65;;;;;;;5.16;91.58;100540.16;10409837;28;20049;-66
2022/01/05 20:41:14;;;;;;;13.40;1.73;;;;;;;5.06;92.92;100538.06;10391994;28;20064;-65
2022/01/05 20:46:36;;;;;;;22.50;2.42;;;;;;;5.01;93.17;100561.53;10383972;28;20057;-66
2022/01/05 20:51:57;;;;;;;10.52;1.77;;;;;;;5.04;94.68;100576.88;10390910;28;20076;-65
2022/01/05 20:57:19;;;;;;;17.27;3.00;;;;;;;4.97;95.03;100572.91;10426226;28;20064;-65
2022/01/05 21:02:42;;;;;;;21.95;3.72;;;;;;;5.00;94.92;100575.34;10411187;28;20049;-65
2022/01/05 21:08:05;;;;;;;24.00;3.15;;;;;;;4.95;94.21;100579.88;10415254;28;20592;-66
2022/01/05 21:13:27;;;;;;;17.75;2.97;;;;;;;4.93;94.77;100589.47;10394989;28;20049;-65
2022/01/05 21:18:51;;;;;;;16.75;3.03;;;;;;;4.95;93.60;100597.94;10343625;28;20038;-65
2022/01/05 21:24:14;;;;;;;18.83;2.78;;;;;;;4.99;93.87;100596.91;10357261;28;20065;-65
2022/01/05 21:29:35;;;;;;;12.25;2.50;;;;;;;4.95;93.54;100608.28;10395425;28;20075;-65
2022/01/05 21:34:58;;;;;;;16.27;2.30;;;;;;;4.98;93.47;100604.75;10372548;28;20165;-65
2022/01/05 21:40:20;;;;;;;16.92;2.38;;;;;;;4.88;93.02;100603.47;10382163;28;20049;-65
2022/01/05 21:45:42;;;;;;;15.57;2.20;;;;;;;4.94;93.47;100631.59;10398181;28;20049;-66
2022/01/05 21:51:04;;;;;;;23.40;2.58;;;;;;;4.90;95.53;100651.56;10370188;28;20058;-65
2022/01/05 21:56:26;;;;;;;10.35;2.25;;;;;;;4.90;96.29;100653.31;10397231;28;20418;-65
2022/01/05 22:01:54;;;;;;;16.40;2.13;;;;;;;4.85;96.87;100663.84;10394486;28;20136;-65
2022/01/05 22:07:16;;;;;;;13.63;1.98;;;;;;;4.80;98.59;100670.94;10399726;28;20057;-66
2022/01/05 22:12:37;;;;;;;10.98;1.80;;;;;;;4.82;98.10;100676.88;10377738;28;20502;-65
2022/01/05 22:17:59;;;;;;;14.00;1.83;;;;;;;4.77;98.91;100691.75;10378858;28;20042;-65
2022/01/05 22:23:21;;;;;;;12.25;1.58;;;;;;;4.67;98.33;100681.03;10341776;28;20054;-65
2022/01/05 22:28:43;;;;;;;16.92;1.70;;;;;;;4.56;99.26;100696.13;10379464;28;20140;-65
2022/01/05 22:34:05;;;;;;;10.50;1.17;;;;;;;4.55;99.36;100704.78;10400106;28;20065;-65
2022/01/05 22:39:27;;;;;;;11.98;1.45;;;;;;;4.44;99.18;100706.97;10362681;28;20042;-66
2022/01/05 22:44:48;;;;;;;7.75;1.05;;;;;;;4.48;99.50;100736.91;10365811;28;20089;-65
2022/01/05 22:50:10;;;;;;;3.38;0.70;;;;;;;4.40;98.83;100760.47;10362900;28;20054;-65
2022/01/05 22:55:32;;;;;;;3.53;0.90;;;;;;;4.39;99.89;100794.03;10397819;28;20075;-66
2022/01/05 23:00:54;;;;;;;5.20;1.00;;;;;;;4.41;99.22;100795.69;10438058;28;20048;-66
2022/01/05 23:06:16;;;;;;;5.13;0.68;;;;;;;4.33;100.00;100817.53;10444372;28;20045;-65
2022/01/05 23:11:37;;;;;;;4.22;0.80;;;;;;;4.25;100.00;100832.44;10412123;28;20511;-65
2022/01/05 23:16:59;;;;;;;3.15;0.60;;;;;;;4.20;100.00;100842.94;10413329;28;20055;-65
2022/01/05 23:22:20;;;;;;;4.32;0.70;;;;;;;4.22;100.00;100855.81;10362155;28;20389;-66
2022/01/05 23:27:42;;;;;;;3.35;0.93;;;;;;;4.31;100.00;100886.41;10381810;28;20044;-66
2022/01/05 23:33:04;;;;;;;1.73;0.52;;;;;;;4.17;100.00;100886.91;10429719;28;20057;-64
2022/01/05 23:38:27;;;;;;;5.75;1.00;;;;;;;3.99;100.00;100899.66;10374302;28;20054;-64
2022/01/05 23:43:49;;;;;;;5.97;0.80;;;;;;;4.14;100.00;100909.41;10361166;28;20045;-64
2022/01/05 23:49:11;;;;;;;5.82;0.90;;;;;;;4.03;100.00;100917.53;10360209;28;20156;-65
2022/01/05 23:54:33;;;;;;;8.13;1.10;;;;;;;3.86;100.00;100921.63;10379310;28;20056;-64
2022/01/05 23:59:55;;;;;;;8.98;0.80;;;;;;;3.76;100.00;100933.16;10441775;28;20037;-64
